createdAt,value
2022-08-19T00:03:41.253Z,5.13
2022-08-19T00:08:42.846Z,5.53
2022-08-19T00:13:44.459Z,5.32
2022-08-19T00:18:46.127Z,5.50
2022-08-19T00:23:47.709Z,5.43
2022-08-19T00:28:49.133Z,5.75
2022-08-19T00:33:51.339Z,5.53
2022-08-19T00:38:53.297Z,5.53
2022-08-19T00:44:27.047Z,7.00
2022-08-19T00:49:36.981Z,6.07
2022-08-19T00:54:40.219Z,6.13
2022-08-19T01:00:01.128Z,5.85
2022-08-19T01:05:08.957Z,6.25
2022-08-19T01:10:15.157Z,5.90
2022-08-19T01:15:26.417Z,6.65
2022-08-19T01:20:28.141Z,5.38
2022-08-19T01:25:35.915Z,6.00
2022-08-19T01:30:44.271Z,5.55
2022-08-19T01:35:46.827Z,6.55
2022-08-19T01:40:48.375Z,6.00
2022-08-19T01:45:49.947Z,6.60
2022-08-19T01:50:51.334Z,6.00
2022-08-19T01:55:52.818Z,5.60
2022-08-19T02:00:54.255Z,6.13
2022-08-19T02:06:01.243Z,6.18
2022-08-19T02:11:03.245Z,6.43
2022-08-19T02:16:04.728Z,7.65
2022-08-19T02:21:06.317Z,6.30
2022-08-19T02:26:07.830Z,6.53
2022-08-19T02:31:12.479Z,6.80
2022-08-19T02:36:15.813Z,6.57
2022-08-19T02:41:30.468Z,6.82
2022-08-19T02:46:33.709Z,6.63
2022-08-19T02:51:39.470Z,6.78
2022-08-19T02:56:42.733Z,6.80
2022-08-19T03:01:44.357Z,7.45
2022-08-19T03:06:47.934Z,6.90
2022-08-19T03:11:49.445Z,7.15
2022-08-19T03:16:54.261Z,7.03
2022-08-19T03:21:56.508Z,7.32
2022-08-19T03:26:58.668Z,6.47
2022-08-19T03:32:02.148Z,6.55
2022-08-19T03:37:10.253Z,7.70
2022-08-19T03:42:38.310Z,7.20
2022-08-19T03:47:33.882Z,7.57
2022-08-19T03:52:36.784Z,7.70
2022-08-19T03:57:38.225Z,7.40
2022-08-19T04:02:39.768Z,7.38
2022-08-19T04:07:41.595Z,7.18
2022-08-19T04:12:43.035Z,6.75
2022-08-19T04:17:44.431Z,7.25
2022-08-19T04:22:45.967Z,6.97
2022-08-19T04:27:47.890Z,7.53
2022-08-19T04:32:50.173Z,6.82
2022-08-19T04:37:51.641Z,7.47
2022-08-19T04:42:54.893Z,7.05
2022-08-19T04:48:19.567Z,7.63
2022-08-19T04:53:19.526Z,7.35
2022-08-19T04:58:21.042Z,7.40
2022-08-19T05:03:22.591Z,8.05
2022-08-19T05:08:31.145Z,9.10
2022-08-19T05:13:33.609Z,9.30
2022-08-19T05:18:53.346Z,9.07
2022-08-19T05:23:54.985Z,8.27
2022-08-19T05:28:56.423Z,9.02
2022-08-19T05:33:59.445Z,10.10
2022-08-19T05:39:00.972Z,9.25
2022-08-19T05:44:06.846Z,10.60
2022-08-19T05:49:08.882Z,11.23
2022-08-19T05:54:12.178Z,12.18
2022-08-19T05:59:13.749Z,11.57
2022-08-19T06:04:15.273Z,12.77
2022-08-19T06:09:16.702Z,13.43
2022-08-19T06:14:21.955Z,14.45
2022-08-19T06:19:33.469Z,14.80
2022-08-19T06:24:36.099Z,16.58
2022-08-19T06:29:37.568Z,16.73
2022-08-19T06:34:39.072Z,16.50
2022-08-19T06:39:43.226Z,16.27
2022-08-19T06:44:48.123Z,17.02
2022-08-19T06:49:54.640Z,19.02
2022-08-19T07:00:13.200Z,19.23
2022-08-19T07:05:14.662Z,18.17
2022-08-19T07:10:16.133Z,17.60
2022-08-19T07:15:18.800Z,17.55
2022-08-19T07:20:20.430Z,19.58
2022-08-19T07:25:22.748Z,20.48
2022-08-19T07:30:36.647Z,20.95
2022-08-19T07:35:38.080Z,19.85
2022-08-19T07:40:41.058Z,19.77
2022-08-19T07:45:43.281Z,21.40
2022-08-19T07:50:44.746Z,23.60
2022-08-19T07:55:46.185Z,23.73
2022-08-19T08:00:49.609Z,20.10
2022-08-19T08:06:09.582Z,19.83
2022-08-19T08:11:12.771Z,17.30
2022-08-19T08:16:17.068Z,18.98
2022-08-19T08:21:18.498Z,17.13
2022-08-19T08:26:19.926Z,17.33
2022-08-19T08:31:21.603Z,16.80
2022-08-19T08:36:23.126Z,18.92
2022-08-19T08:41:53.766Z,18.10
2022-08-19T08:52:19.485Z,12.05
2022-08-19T08:57:29.010Z,13.48
2022-08-19T09:02:39.061Z,9.88
2022-08-19T09:08:26.289Z,9.45
2022-08-19T09:13:42.776Z,10.40
2022-08-19T09:18:53.967Z,12.02
2022-08-19T09:23:56.275Z,11.27
2022-08-19T09:28:59.053Z,12.35
2022-08-19T09:34:00.673Z,13.02
2022-08-19T09:39:04.797Z,14.02
2022-08-19T09:44:18.097Z,13.45
2022-08-19T09:49:22.406Z,15.63
2022-08-19T09:54:25.308Z,15.38
2022-08-19T09:59:28.017Z,17.10
2022-08-19T10:04:49.386Z,16.90
2022-08-19T10:09:50.926Z,15.68
2022-08-19T10:14:54.311Z,16.55
2022-08-19T10:19:56.132Z,15.77
2022-08-19T10:24:57.794Z,15.60
2022-08-19T10:29:59.250Z,15.65
2022-08-19T10:35:06.025Z,15.43
2022-08-19T10:40:11.648Z,14.98
2022-08-19T10:45:13.107Z,14.55
2022-08-19T10:50:37.691Z,15.18
2022-08-19T10:55:58.267Z,15.45
2022-08-19T11:00:59.920Z,17.02
2022-08-19T11:06:04.631Z,17.80
2022-08-19T11:11:08.038Z,16.05
2022-08-19T11:16:19.511Z,16.23
2022-08-19T11:21:24.754Z,12.95
2022-08-19T11:26:26.882Z,12.68
2022-08-19T11:31:34.212Z,13.65
2022-08-19T11:36:39.543Z,11.00
2022-08-19T11:41:41.493Z,9.93
2022-08-19T11:46:47.274Z,8.55
2022-08-19T11:51:51.004Z,10.10
2022-08-19T11:56:52.584Z,8.20
2022-08-19T12:01:53.998Z,9.02
2022-08-19T12:06:56.247Z,8.82
2022-08-19T12:11:57.676Z,7.47
2022-08-19T12:16:59.304Z,6.70
2022-08-19T12:22:03.526Z,5.93
2022-08-19T12:27:05.053Z,7.28
2022-08-19T12:32:12.300Z,6.75
2022-08-19T12:37:14.448Z,6.00
2022-08-19T12:42:16.315Z,5.45
2022-08-19T12:47:17.953Z,5.50
2022-08-19T12:52:23.247Z,5.10
2022-08-19T12:57:32.530Z,4.07
2022-08-19T13:02:38.278Z,4.80
2022-08-19T13:07:41.800Z,4.75
2022-08-19T13:12:45.006Z,5.57
2022-08-19T13:17:47.368Z,5.63
2022-08-19T13:22:49.379Z,5.10
2022-08-19T13:27:51.671Z,5.03
2022-08-19T13:33:11.724Z,4.38
2022-08-19T13:38:17.364Z,4.90
2022-08-19T13:43:23.052Z,5.30
2022-08-19T13:48:27.622Z,6.32
2022-08-19T13:53:32.335Z,6.82
2022-08-19T13:58:34.552Z,6.90
2022-08-19T14:03:36.685Z,8.20
2022-08-19T14:08:44.203Z,7.63
2022-08-19T14:13:47.499Z,8.52
2022-08-19T14:18:49.078Z,8.95
2022-08-19T14:23:51.386Z,8.73
2022-08-19T14:28:53.686Z,8.50
2022-08-19T14:33:55.174Z,8.35
2022-08-19T14:38:58.462Z,7.65
2022-08-19T14:44:01.300Z,6.97
2022-08-19T14:49:09.350Z,5.15
2022-08-19T14:54:11.101Z,5.70
2022-08-19T14:59:12.672Z,6.13
2022-08-19T15:04:14.277Z,9.40
2022-08-19T15:09:15.678Z,8.05
2022-08-19T15:14:17.539Z,8.23
2022-08-19T15:19:19.297Z,7.53
2022-08-19T15:24:20.771Z,8.93
2022-08-19T15:29:25.265Z,8.48
2022-08-19T15:34:26.707Z,8.80
2022-08-19T15:39:28.172Z,8.50
2022-08-19T15:44:30.132Z,9.05
2022-08-19T15:49:32.253Z,8.45
2022-08-19T15:54:34.130Z,8.90
2022-08-19T15:59:55.656Z,8.63
2022-08-19T16:05:20.353Z,7.72
2022-08-19T16:15:30.839Z,8.73
2022-08-19T16:20:33.201Z,8.95
2022-08-19T16:25:37.192Z,9.82
2022-08-19T16:30:41.251Z,10.10
2022-08-19T16:35:42.731Z,8.55
2022-08-19T16:40:46.772Z,9.32
2022-08-19T16:45:52.955Z,10.02
2022-08-19T16:50:54.590Z,8.40
2022-08-19T16:55:57.615Z,8.02
2022-08-19T17:01:03.966Z,7.47
2022-08-19T17:06:27.262Z,7.63
2022-08-19T17:11:32.717Z,7.30
2022-08-19T17:16:36.143Z,7.38
2022-08-19T17:21:39.312Z,7.95
2022-08-19T17:26:41.474Z,7.85
2022-08-19T17:31:43.355Z,7.28
2022-08-19T17:36:44.851Z,7.65
2022-08-19T17:41:46.239Z,8.30
2022-08-19T17:46:48.260Z,8.65
2022-08-19T17:51:49.935Z,7.97
2022-08-19T17:56:51.380Z,9.63
2022-08-19T18:01:54.623Z,9.60
2022-08-19T18:06:56.488Z,11.65
2022-08-19T18:11:59.379Z,12.10
2022-08-19T18:17:05.983Z,10.02
2022-08-19T18:22:07.457Z,9.27
2022-08-19T18:27:10.062Z,9.93
2022-08-19T18:32:14.530Z,10.30
2022-08-19T18:37:16.115Z,9.35
2022-08-19T18:42:36.668Z,8.88
2022-08-19T18:52:58.468Z,3.97
2022-08-19T18:58:00.583Z,3.90
2022-08-19T19:03:02.235Z,4.70
2022-08-19T19:08:03.779Z,4.32
2022-08-19T19:13:05.177Z,5.18
2022-08-19T19:18:06.608Z,4.30
2022-08-19T19:23:08.654Z,3.80
2022-08-19T19:28:10.430Z,3.10
2022-08-19T19:33:17.812Z,3.25
2022-08-19T19:38:19.350Z,3.00
2022-08-19T19:43:21.137Z,3.13
2022-08-19T19:48:24.655Z,3.50
2022-08-19T19:53:26.525Z,3.83
2022-08-19T19:58:31.379Z,4.25
2022-08-19T20:03:34.700Z,4.18
2022-08-19T20:08:55.028Z,5.00
2022-08-19T20:13:56.782Z,5.28
2022-08-19T20:19:00.096Z,5.55
2022-08-19T20:24:09.801Z,5.90
2022-08-19T20:29:37.872Z,5.70
2022-08-19T20:34:33.743Z,5.55
2022-08-19T20:39:35.315Z,6.78
2022-08-19T20:44:37.762Z,7.15
2022-08-19T20:49:39.212Z,6.90
2022-08-19T20:54:40.652Z,8.13
2022-08-19T20:59:42.109Z,8.20
2022-08-19T21:04:43.526Z,8.95
2022-08-19T21:09:45.012Z,8.77
2022-08-19T21:14:47.208Z,9.13
2022-08-19T21:19:48.645Z,8.15
2022-08-19T21:24:50.214Z,8.57
2022-08-19T21:29:51.661Z,8.18
2022-08-19T21:34:53.346Z,8.38
2022-08-19T21:39:55.492Z,8.48
2022-08-19T21:44:57.063Z,7.60
2022-08-19T21:49:58.534Z,9.35
2022-08-19T21:55:00.031Z,10.07
2022-08-19T22:00:02.429Z,10.10
2022-08-19T22:05:04.230Z,9.00
2022-08-19T22:10:07.082Z,7.07
2022-08-19T22:15:11.342Z,7.35
2022-08-19T22:20:18.470Z,7.90
2022-08-19T22:25:31.183Z,8.23
2022-08-19T22:30:35.013Z,9.00
2022-08-19T22:35:38.134Z,8.25
2022-08-19T22:40:43.885Z,8.57
2022-08-19T22:45:46.647Z,8.90
2022-08-19T22:51:07.658Z,8.52
2022-08-19T22:56:14.623Z,9.73
2022-08-19T23:01:27.361Z,10.43
2022-08-19T23:06:34.135Z,10.95
2022-08-19T23:11:41.917Z,10.05
2022-08-19T23:16:50.449Z,11.60
2022-08-19T23:21:52.703Z,12.10
2022-08-19T23:27:12.866Z,13.13
2022-08-19T23:32:14.284Z,10.93
2022-08-19T23:37:17.709Z,10.93
2022-08-19T23:42:20.444Z,12.60
2022-08-19T23:47:21.927Z,11.57
2022-08-19T23:52:23.791Z,11.07
2022-08-19T23:57:25.195Z,10.75
